sensor_id;sensor_type;location;lat;lon;timestamp;pressure;altitude;pressure_sealevel;temperature;humidity
64115;BME280;62188;35.640;139.748;2022-08-06T00:01:32;101077.84;;;28.52;37.57
64115;BME280;62188;35.640;139.748;2022-08-06T00:03:57;101071.42;;;28.50;37.53
64115;BME280;62188;35.640;139.748;2022-08-06T00:06:23;101069.69;;;28.74;37.45
64115;BME280;62188;35.640;139.748;2022-08-06T00:08:48;101072.25;;;28.83;37.24
64115;BME280;62188;35.640;139.748;2022-08-06T00:11:13;101067.91;;;28.97;37.34
64115;BME280;62188;35.640;139.748;2022-08-06T00:13:48;101070.57;;;29.02;37.40
64115;BME280;62188;35.640;139.748;2022-08-06T00:16:04;101066.54;;;28.88;37.06
64115;BME280;62188;35.640;139.748;2022-08-06T00:18:30;101062.65;;;28.55;37.18
64115;BME280;62188;35.640;139.748;2022-08-06T00:20:55;101060.11;;;28.29;37.68
64115;BME280;62188;35.640;139.748;2022-08-06T00:23:21;101058.37;;;28.53;37.50
64115;BME280;62188;35.640;139.748;2022-08-06T00:25:46;101055.31;;;29.02;37.35
64115;BME280;62188;35.640;139.748;2022-08-06T00:28:11;101055.07;;;28.94;37.63
64115;BME280;62188;35.640;139.748;2022-08-06T00:30:36;101057.37;;;28.68;37.61
64115;BME280;62188;35.640;139.748;2022-08-06T00:33:01;101061.45;;;29.04;37.35
64115;BME280;62188;35.640;139.748;2022-08-06T00:35:27;101061.09;;;28.90;37.43
64115;BME280;62188;35.640;139.748;2022-08-06T00:37:52;101057.41;;;29.12;36.67
64115;BME280;62188;35.640;139.748;2022-08-06T00:40:20;101058.48;;;29.07;37.51
64115;BME280;62188;35.640;139.748;2022-08-06T00:42:43;101060.70;;;29.09;37.45
64115;BME280;62188;35.640;139.748;2022-08-06T00:45:08;101063.36;;;28.97;37.46
64115;BME280;62188;35.640;139.748;2022-08-06T00:47:34;101062.67;;;29.05;37.34
64115;BME280;62188;35.640;139.748;2022-08-06T00:49:59;101060.10;;;29.13;37.02
64115;BME280;62188;35.640;139.748;2022-08-06T00:52:24;101060.27;;;28.88;37.11
64115;BME280;62188;35.640;139.748;2022-08-06T00:54:49;101062.07;;;28.77;37.39
64115;BME280;62188;35.640;139.748;2022-08-06T00:57:15;101062.99;;;28.72;37.27
64115;BME280;62188;35.640;139.748;2022-08-06T00:59:40;101064.14;;;28.97;37.28
64115;BME280;62188;35.640;139.748;2022-08-06T01:02:05;101064.87;;;28.68;37.15
64115;BME280;62188;35.640;139.748;2022-08-06T01:04:31;101059.94;;;28.82;37.17
64115;BME280;62188;35.640;139.748;2022-08-06T01:06:56;101052.95;;;29.05;37.03
64115;BME280;62188;35.640;139.748;2022-08-06T01:09:22;101049.72;;;29.12;36.67
64115;BME280;62188;35.640;139.748;2022-08-06T01:11:47;101050.78;;;29.13;36.69
64115;BME280;62188;35.640;139.748;2022-08-06T01:14:12;101050.26;;;28.98;36.19
64115;BME280;62188;35.640;139.748;2022-08-06T01:16:42;101050.80;;;29.07;36.18
64115;BME280;62188;35.640;139.748;2022-08-06T01:21:45;101048.24;;;29.39;36.00
64115;BME280;62188;35.640;139.748;2022-08-06T01:24:05;101050.42;;;29.51;35.93
64115;BME280;62188;35.640;139.748;2022-08-06T01:26:29;101054.58;;;29.44;36.01
64115;BME280;62188;35.640;139.748;2022-08-06T01:28:49;101055.07;;;29.22;36.28
64115;BME280;62188;35.640;139.748;2022-08-06T01:31:10;101056.62;;;29.14;36.40
64115;BME280;62188;35.640;139.748;2022-08-06T01:33:39;101053.03;;;29.02;36.63
64115;BME280;62188;35.640;139.748;2022-08-06T01:36:05;101057.36;;;28.95;36.55
64115;BME280;62188;35.640;139.748;2022-08-06T01:38:30;101057.76;;;28.81;36.83
64115;BME280;62188;35.640;139.748;2022-08-06T01:40:52;101053.19;;;28.85;36.76
64115;BME280;62188;35.640;139.748;2022-08-06T01:43:20;101051.95;;;28.92;36.87
64115;BME280;62188;35.640;139.748;2022-08-06T01:45:42;101050.00;;;29.28;36.70
64115;BME280;62188;35.640;139.748;2022-08-06T01:48:12;101048.37;;;29.07;36.62
64115;BME280;62188;35.640;139.748;2022-08-06T01:50:35;101043.80;;;29.05;36.77
64115;BME280;62188;35.640;139.748;2022-08-06T01:52:59;101044.35;;;29.15;36.83
64115;BME280;62188;35.640;139.748;2022-08-06T01:55:25;101045.76;;;29.12;36.90
64115;BME280;62188;35.640;139.748;2022-08-06T01:57:52;101045.71;;;28.98;36.90
64115;BME280;62188;35.640;139.748;2022-08-06T02:00:14;101051.10;;;28.86;37.16
64115;BME280;62188;35.640;139.748;2022-08-06T02:02:41;101052.18;;;28.89;37.07
64115;BME280;62188;35.640;139.748;2022-08-06T02:05:06;101047.04;;;28.96;37.06
64115;BME280;62188;35.640;139.748;2022-08-06T02:07:33;101046.45;;;29.02;36.94
64115;BME280;62188;35.640;139.748;2022-08-06T02:09:57;101044.97;;;29.09;36.91
64115;BME280;62188;35.640;139.748;2022-08-06T02:12:24;101039.69;;;28.89;36.64
64115;BME280;62188;35.640;139.748;2022-08-06T02:14:49;101037.25;;;29.19;36.74
64115;BME280;62188;35.640;139.748;2022-08-06T02:17:13;101028.78;;;29.14;36.97
64115;BME280;62188;35.640;139.748;2022-08-06T02:19:37;101024.37;;;29.20;36.89
64115;BME280;62188;35.640;139.748;2022-08-06T02:22:03;101020.09;;;29.19;36.97
64115;BME280;62188;35.640;139.748;2022-08-06T02:24:28;101022.37;;;29.15;36.82
64115;BME280;62188;35.640;139.748;2022-08-06T02:26:53;101016.25;;;29.14;37.19
64115;BME280;62188;35.640;139.748;2022-08-06T02:29:18;101015.86;;;29.37;37.50
64115;BME280;62188;35.640;139.748;2022-08-06T02:31:43;101019.82;;;29.49;36.97
64115;BME280;62188;35.640;139.748;2022-08-06T02:34:08;101017.90;;;29.27;36.93
64115;BME280;62188;35.640;139.748;2022-08-06T02:36:39;101021.25;;;29.45;36.87
64115;BME280;62188;35.640;139.748;2022-08-06T02:39:03;101020.95;;;29.21;36.84
64115;BME280;62188;35.640;139.748;2022-08-06T02:41:29;101016.65;;;29.46;37.02
64115;BME280;62188;35.640;139.748;2022-08-06T02:43:52;101021.27;;;29.22;36.98
64115;BME280;62188;35.640;139.748;2022-08-06T02:46:19;101020.61;;;29.40;36.84
64115;BME280;62188;35.640;139.748;2022-08-06T02:48:45;101021.84;;;29.39;36.80
64115;BME280;62188;35.640;139.748;2022-08-06T02:51:10;101020.92;;;29.16;36.85
64115;BME280;62188;35.640;139.748;2022-08-06T02:53:36;101015.51;;;29.24;36.98
64115;BME280;62188;35.640;139.748;2022-08-06T02:55:59;101014.36;;;29.48;36.89
64115;BME280;62188;35.640;139.748;2022-08-06T02:58:26;101010.82;;;29.18;37.01
64115;BME280;62188;35.640;139.748;2022-08-06T03:00:50;101007.20;;;29.08;37.01
64115;BME280;62188;35.640;139.748;2022-08-06T03:03:14;101002.76;;;29.14;37.23
64115;BME280;62188;35.640;139.748;2022-08-06T03:05:38;100997.70;;;29.25;36.90
64115;BME280;62188;35.640;139.748;2022-08-06T03:08:04;100999.10;;;29.05;36.50
64115;BME280;62188;35.640;139.748;2022-08-06T03:10:29;100996.45;;;29.11;36.35
64115;BME280;62188;35.640;139.748;2022-08-06T03:12:55;100998.17;;;29.45;36.63
64115;BME280;62188;35.640;139.748;2022-08-06T03:15:20;100997.21;;;29.34;36.37
64115;BME280;62188;35.640;139.748;2022-08-06T03:17:45;100996.81;;;29.37;36.45
64115;BME280;62188;35.640;139.748;2022-08-06T03:20:11;100997.35;;;29.45;36.78
64115;BME280;62188;35.640;139.748;2022-08-06T03:22:36;100997.76;;;29.56;36.93
64115;BME280;62188;35.640;139.748;2022-08-06T03:25:01;101003.98;;;29.40;36.36
64115;BME280;62188;35.640;139.748;2022-08-06T03:27:26;101003.57;;;29.61;36.25
64115;BME280;62188;35.640;139.748;2022-08-06T03:29:52;100997.59;;;29.68;36.26
64115;BME280;62188;35.640;139.748;2022-08-06T03:32:17;100995.79;;;29.62;36.25
64115;BME280;62188;35.640;139.748;2022-08-06T03:34:42;100995.62;;;29.76;36.44
64115;BME280;62188;35.640;139.748;2022-08-06T03:37:09;100998.25;;;29.76;36.41
64115;BME280;62188;35.640;139.748;2022-08-06T03:39:33;101000.42;;;29.82;35.88
64115;BME280;62188;35.640;139.748;2022-08-06T03:41:58;101002.88;;;29.88;35.88
64115;BME280;62188;35.640;139.748;2022-08-06T03:44:24;101004.38;;;29.64;36.46
64115;BME280;62188;35.640;139.748;2022-08-06T03:46:54;101000.11;;;29.91;35.79
64115;BME280;62188;35.640;139.748;2022-08-06T03:49:18;100999.70;;;29.85;35.68
64115;BME280;62188;35.640;139.748;2022-08-06T03:51:39;100999.79;;;29.45;36.25
64115;BME280;62188;35.640;139.748;2022-08-06T03:54:06;100997.04;;;29.86;36.35
64115;BME280;62188;35.640;139.748;2022-08-06T03:56:30;100998.41;;;30.02;36.61
64115;BME280;62188;35.640;139.748;2022-08-06T03:58:58;100995.39;;;30.07;36.18
64115;BME280;62188;35.640;139.748;2022-08-06T04:01:26;100992.62;;;29.87;36.52
64115;BME280;62188;35.640;139.748;2022-08-06T04:03:46;100991.06;;;29.85;36.45
64115;BME280;62188;35.640;139.748;2022-08-06T04:06:12;100985.39;;;29.55;36.38
64115;BME280;62188;35.640;139.748;2022-08-06T04:08:37;100981.43;;;29.95;36.47
64115;BME280;62188;35.640;139.748;2022-08-06T04:11:02;100977.51;;;29.74;36.61
64115;BME280;62188;35.640;139.748;2022-08-06T04:13:28;100969.54;;;29.83;36.43
64115;BME280;62188;35.640;139.748;2022-08-06T04:15:54;100964.55;;;29.94;36.41
64115;BME280;62188;35.640;139.748;2022-08-06T04:18:20;100964.80;;;29.77;36.44
64115;BME280;62188;35.640;139.748;2022-08-06T04:20:45;100970.21;;;29.75;36.02
64115;BME280;62188;35.640;139.748;2022-08-06T04:23:09;100972.01;;;29.94;35.83
64115;BME280;62188;35.640;139.748;2022-08-06T04:25:38;100974.94;;;29.92;36.09
64115;BME280;62188;35.640;139.748;2022-08-06T04:28:00;100975.15;;;29.67;36.06
64115;BME280;62188;35.640;139.748;2022-08-06T04:30:25;100975.53;;;30.02;36.21
64115;BME280;62188;35.640;139.748;2022-08-06T04:32:49;100970.89;;;29.86;36.02
64115;BME280;62188;35.640;139.748;2022-08-06T04:35:15;100967.95;;;29.98;36.06
64115;BME280;62188;35.640;139.748;2022-08-06T04:37:40;100966.64;;;30.11;36.39
64115;BME280;62188;35.640;139.748;2022-08-06T04:40:08;100964.84;;;30.43;36.08
64115;BME280;62188;35.640;139.748;2022-08-06T04:42:31;100964.93;;;30.28;35.92
64115;BME280;62188;35.640;139.748;2022-08-06T04:44:56;100959.76;;;30.39;35.87
64115;BME280;62188;35.640;139.748;2022-08-06T04:47:22;100956.30;;;30.43;35.48
64115;BME280;62188;35.640;139.748;2022-08-06T04:49:47;100950.59;;;30.41;35.65
64115;BME280;62188;35.640;139.748;2022-08-06T04:52:21;100951.64;;;30.40;35.67
64115;BME280;62188;35.640;139.748;2022-08-06T04:54:37;100950.01;;;30.29;35.84
64115;BME280;62188;35.640;139.748;2022-08-06T04:57:02;100951.09;;;30.32;36.16
64115;BME280;62188;35.640;139.748;2022-08-06T04:59:28;100950.93;;;30.40;36.05
64115;BME280;62188;35.640;139.748;2022-08-06T05:01:53;100949.32;;;30.31;35.68
64115;BME280;62188;35.640;139.748;2022-08-06T05:04:18;100945.72;;;30.29;35.82
64115;BME280;62188;35.640;139.748;2022-08-06T05:06:52;100941.08;;;30.29;35.76
64115;BME280;62188;35.640;139.748;2022-08-06T05:09:13;100944.38;;;30.34;35.89
64115;BME280;62188;35.640;139.748;2022-08-06T05:11:40;100941.32;;;30.29;35.81
64115;BME280;62188;35.640;139.748;2022-08-06T05:14:03;100939.07;;;30.26;35.80
64115;BME280;62188;35.640;139.748;2022-08-06T05:16:26;100940.15;;;30.22;35.86
64115;BME280;62188;35.640;139.748;2022-08-06T05:18:52;100941.61;;;30.13;35.89
64115;BME280;62188;35.640;139.748;2022-08-06T05:21:22;100937.47;;;30.06;35.94
64115;BME280;62188;35.640;139.748;2022-08-06T05:23:45;100933.48;;;29.95;36.06
64115;BME280;62188;35.640;139.748;2022-08-06T05:26:07;100930.54;;;29.91;36.48
64115;BME280;62188;35.640;139.748;2022-08-06T05:28:32;100929.72;;;29.93;36.40
64115;BME280;62188;35.640;139.748;2022-08-06T05:30:57;100932.45;;;30.08;36.40
64115;BME280;62188;35.640;139.748;2022-08-06T05:33:28;100927.15;;;29.74;36.48
64115;BME280;62188;35.640;139.748;2022-08-06T05:35:47;100923.94;;;29.70;36.51
64115;BME280;62188;35.640;139.748;2022-08-06T05:38:13;100917.58;;;29.97;36.71
64115;BME280;62188;35.640;139.748;2022-08-06T05:40:39;100914.37;;;29.76;36.56
64115;BME280;62188;35.640;139.748;2022-08-06T05:43:04;100913.34;;;29.93;36.73
64115;BME280;62188;35.640;139.748;2022-08-06T05:45:29;100909.35;;;29.59;36.97
64115;BME280;62188;35.640;139.748;2022-08-06T05:47:55;100909.23;;;29.79;36.77
64115;BME280;62188;35.640;139.748;2022-08-06T05:50:22;100907.88;;;29.70;37.00
64115;BME280;62188;35.640;139.748;2022-08-06T05:52:50;100907.85;;;29.66;37.09
64115;BME280;62188;35.640;139.748;2022-08-06T05:55:15;100908.42;;;29.75;37.29
64115;BME280;62188;35.640;139.748;2022-08-06T05:57:39;100908.55;;;29.53;37.36
64115;BME280;62188;35.640;139.748;2022-08-06T06:00:03;100905.36;;;29.56;37.35
64115;BME280;62188;35.640;139.748;2022-08-06T06:02:27;100906.18;;;29.85;37.45
64115;BME280;62188;35.640;139.748;2022-08-06T06:04:52;100904.43;;;29.88;37.66
64115;BME280;62188;35.640;139.748;2022-08-06T06:07:16;100902.91;;;29.70;37.58
64115;BME280;62188;35.640;139.748;2022-08-06T06:09:42;100902.16;;;29.93;37.70
64115;BME280;62188;35.640;139.748;2022-08-06T06:12:08;100903.11;;;29.91;37.88
64115;BME280;62188;35.640;139.748;2022-08-06T06:14:37;100900.66;;;29.90;38.13
64115;BME280;62188;35.640;139.748;2022-08-06T06:17:07;100903.59;;;29.93;38.24
64115;BME280;62188;35.640;139.748;2022-08-06T06:19:30;100907.06;;;29.86;38.42
64115;BME280;62188;35.640;139.748;2022-08-06T06:21:56;100906.22;;;29.81;38.56
64115;BME280;62188;35.640;139.748;2022-08-06T06:24:18;100906.19;;;29.82;38.82
64115;BME280;62188;35.640;139.748;2022-08-06T06:26:44;100902.41;;;29.73;38.78
64115;BME280;62188;35.640;139.748;2022-08-06T06:29:11;100898.10;;;29.66;39.25
64115;BME280;62188;35.640;139.748;2022-08-06T06:31:37;100898.08;;;29.65;39.20
64115;BME280;62188;35.640;139.748;2022-08-06T06:34:02;100893.96;;;29.54;38.70
64115;BME280;62188;35.640;139.748;2022-08-06T06:36:25;100886.53;;;29.52;39.06
64115;BME280;62188;35.640;139.748;2022-08-06T06:38:51;100890.72;;;29.62;39.04
64115;BME280;62188;35.640;139.748;2022-08-06T06:41:15;100892.43;;;29.49;39.07
64115;BME280;62188;35.640;139.748;2022-08-06T06:43:43;100894.83;;;29.52;39.41
64115;BME280;62188;35.640;139.748;2022-08-06T06:46:06;100902.32;;;29.71;39.36
64115;BME280;62188;35.640;139.748;2022-08-06T06:48:32;100903.90;;;29.74;39.75
64115;BME280;62188;35.640;139.748;2022-08-06T06:50:55;100904.79;;;29.70;39.24
64115;BME280;62188;35.640;139.748;2022-08-06T06:53:17;100903.12;;;29.39;39.37
64115;BME280;62188;35.640;139.748;2022-08-06T06:55:46;100899.96;;;29.66;39.59
64115;BME280;62188;35.640;139.748;2022-08-06T06:58:14;100898.63;;;29.49;39.70
64115;BME280;62188;35.640;139.748;2022-08-06T07:00:34;100897.73;;;29.80;39.76
64115;BME280;62188;35.640;139.748;2022-08-06T07:02:58;100898.25;;;29.90;39.50
64115;BME280;62188;35.640;139.748;2022-08-06T07:05:24;100897.56;;;29.87;39.31
64115;BME280;62188;35.640;139.748;2022-08-06T07:07:48;100894.80;;;29.68;39.55
64115;BME280;62188;35.640;139.748;2022-08-06T07:10:14;100898.94;;;29.50;39.76
64115;BME280;62188;35.640;139.748;2022-08-06T07:12:42;100894.04;;;29.45;39.73
64115;BME280;62188;35.640;139.748;2022-08-06T07:15:06;100902.70;;;29.46;39.58
64115;BME280;62188;35.640;139.748;2022-08-06T07:17:31;100906.76;;;29.59;39.54
64115;BME280;62188;35.640;139.748;2022-08-06T07:19:58;100908.76;;;29.60;39.96
64115;BME280;62188;35.640;139.748;2022-08-06T07:22:22;100902.46;;;29.80;40.34
64115;BME280;62188;35.640;139.748;2022-08-06T07:24:45;100899.53;;;29.55;40.49
64115;BME280;62188;35.640;139.748;2022-08-06T07:27:11;100901.51;;;29.84;40.64
64115;BME280;62188;35.640;139.748;2022-08-06T07:29:36;100903.84;;;29.53;40.51
64115;BME280;62188;35.640;139.748;2022-08-06T07:32:01;100902.79;;;29.46;40.82
64115;BME280;62188;35.640;139.748;2022-08-06T07:34:27;100904.54;;;29.74;41.07
64115;BME280;62188;35.640;139.748;2022-08-06T07:36:54;100899.75;;;29.40;40.76
64115;BME280;62188;35.640;139.748;2022-08-06T07:39:21;100894.00;;;29.54;41.02
64115;BME280;62188;35.640;139.748;2022-08-06T07:41:43;100899.24;;;29.29;41.29
64115;BME280;62188;35.640;139.748;2022-08-06T07:44:09;100898.90;;;29.25;41.60
64115;BME280;62188;35.640;139.748;2022-08-06T07:46:37;100901.54;;;29.43;41.74
64115;BME280;62188;35.640;139.748;2022-08-06T07:49:01;100896.97;;;29.48;41.73
64115;BME280;62188;35.640;139.748;2022-08-06T07:51:28;100899.20;;;29.29;41.83
64115;BME280;62188;35.640;139.748;2022-08-06T07:53:49;100901.68;;;29.29;41.82
64115;BME280;62188;35.640;139.748;2022-08-06T07:56:14;100904.34;;;29.22;41.81
64115;BME280;62188;35.640;139.748;2022-08-06T07:58:39;100907.22;;;29.49;41.92
64115;BME280;62188;35.640;139.748;2022-08-06T08:01:06;100907.03;;;29.52;41.86
64115;BME280;62188;35.640;139.748;2022-08-06T08:03:30;100907.72;;;29.49;41.81
64115;BME280;62188;35.640;139.748;2022-08-06T08:05:55;100911.89;;;29.26;41.79
64115;BME280;62188;35.640;139.748;2022-08-06T08:08:20;100908.46;;;29.27;41.75
64115;BME280;62188;35.640;139.748;2022-08-06T08:10:46;100907.24;;;29.49;41.81
64115;BME280;62188;35.640;139.748;2022-08-06T08:13:11;100912.96;;;29.53;41.84
64115;BME280;62188;35.640;139.748;2022-08-06T08:15:37;100915.35;;;29.54;41.82
64115;BME280;62188;35.640;139.748;2022-08-06T08:18:02;100922.51;;;29.47;41.88
64115;BME280;62188;35.640;139.748;2022-08-06T08:20:28;100922.61;;;29.22;41.94
64115;BME280;62188;35.640;139.748;2022-08-06T08:22:52;100930.13;;;29.45;41.93
64115;BME280;62188;35.640;139.748;2022-08-06T08:25:17;100932.30;;;29.38;42.11
64115;BME280;62188;35.640;139.748;2022-08-06T08:27:42;100929.14;;;29.04;42.22
64115;BME280;62188;35.640;139.748;2022-08-06T08:30:10;100927.25;;;29.30;42.31
64115;BME280;62188;35.640;139.748;2022-08-06T08:32:33;100930.23;;;29.39;42.30
64115;BME280;62188;35.640;139.748;2022-08-06T08:34:58;100931.00;;;29.19;42.34
64115;BME280;62188;35.640;139.748;2022-08-06T08:37:24;100932.54;;;29.51;42.16
64115;BME280;62188;35.640;139.748;2022-08-06T08:39:50;100934.54;;;29.10;42.47
64115;BME280;62188;35.640;139.748;2022-08-06T08:42:22;100928.12;;;29.23;42.68
64115;BME280;62188;35.640;139.748;2022-08-06T08:44:41;100925.54;;;29.15;42.81
64115;BME280;62188;35.640;139.748;2022-08-06T08:47:07;100924.56;;;29.18;42.76
64115;BME280;62188;35.640;139.748;2022-08-06T08:49:37;100922.09;;;29.22;42.74
64115;BME280;62188;35.640;139.748;2022-08-06T08:51:57;100927.18;;;29.03;42.57
64115;BME280;62188;35.640;139.748;2022-08-06T08:54:23;100928.84;;;29.26;42.68
64115;BME280;62188;35.640;139.748;2022-08-06T08:56:48;100928.45;;;29.26;42.71
64115;BME280;62188;35.640;139.748;2022-08-06T08:59:13;100930.22;;;29.31;42.69
64115;BME280;62188;35.640;139.748;2022-08-06T09:01:37;100932.47;;;29.27;42.57
64115;BME280;62188;35.640;139.748;2022-08-06T09:04:04;100935.22;;;29.30;42.63
64115;BME280;62188;35.640;139.748;2022-08-06T09:06:28;100939.36;;;29.25;42.79
64115;BME280;62188;35.640;139.748;2022-08-06T09:08:53;100944.37;;;29.30;42.88
64115;BME280;62188;35.640;139.748;2022-08-06T09:11:18;100946.90;;;29.38;42.79
64115;BME280;62188;35.640;139.748;2022-08-06T09:13:44;100947.91;;;29.37;42.80
64115;BME280;62188;35.640;139.748;2022-08-06T09:16:09;100948.34;;;29.20;42.91
64115;BME280;62188;35.640;139.748;2022-08-06T09:18:35;100952.11;;;29.24;42.71
64115;BME280;62188;35.640;139.748;2022-08-06T09:21:01;100953.56;;;29.45;42.56
64115;BME280;62188;35.640;139.748;2022-08-06T09:23:25;100954.06;;;29.25;42.60
64115;BME280;62188;35.640;139.748;2022-08-06T09:25:51;100958.58;;;29.32;42.62
64115;BME280;62188;35.640;139.748;2022-08-06T09:28:31;100961.50;;;29.42;42.30
64115;BME280;62188;35.640;139.748;2022-08-06T09:30:42;100965.15;;;29.43;42.22
64115;BME280;62188;35.640;139.748;2022-08-06T09:33:11;100964.06;;;29.48;42.22
64115;BME280;62188;35.640;139.748;2022-08-06T09:35:32;100967.61;;;29.49;41.24
64115;BME280;62188;35.640;139.748;2022-08-06T09:38:03;100967.68;;;29.48;41.08
64115;BME280;62188;35.640;139.748;2022-08-06T09:40:22;100968.79;;;29.70;40.85
64115;BME280;62188;35.640;139.748;2022-08-06T09:42:49;100963.92;;;29.41;40.95
64115;BME280;62188;35.640;139.748;2022-08-06T09:45:15;100965.44;;;29.13;41.02
64115;BME280;62188;35.640;139.748;2022-08-06T09:47:38;100964.99;;;29.40;41.12
64115;BME280;62188;35.640;139.748;2022-08-06T09:50:05;100967.98;;;29.43;41.14
64115;BME280;62188;35.640;139.748;2022-08-06T09:52:30;100972.20;;;29.48;41.21
64115;BME280;62188;35.640;139.748;2022-08-06T09:54:55;100974.29;;;29.56;41.20
64115;BME280;62188;35.640;139.748;2022-08-06T09:57:22;100975.06;;;29.58;41.18
64115;BME280;62188;35.640;139.748;2022-08-06T09:59:46;100975.65;;;29.63;41.18
64115;BME280;62188;35.640;139.748;2022-08-06T10:02:14;100968.43;;;29.58;41.18
64115;BME280;62188;35.640;139.748;2022-08-06T10:04:36;100971.42;;;29.39;41.46
64115;BME280;62188;35.640;139.748;2022-08-06T10:07:01;100979.62;;;29.67;41.47
64115;BME280;62188;35.640;139.748;2022-08-06T10:09:27;100981.84;;;29.97;41.34
64115;BME280;62188;35.640;139.748;2022-08-06T10:11:53;100984.88;;;29.51;41.14
64115;BME280;62188;35.640;139.748;2022-08-06T10:14:24;100989.09;;;29.54;41.10
64115;BME280;62188;35.640;139.748;2022-08-06T10:16:43;100995.90;;;29.49;41.28
64115;BME280;62188;35.640;139.748;2022-08-06T10:19:16;100998.26;;;29.45;41.20
64115;BME280;62188;35.640;139.748;2022-08-06T10:21:34;100999.29;;;29.67;41.46
64115;BME280;62188;35.640;139.748;2022-08-06T10:24:01;101005.02;;;29.48;41.70
64115;BME280;62188;35.640;139.748;2022-08-06T10:26:26;101008.33;;;29.47;41.35
64115;BME280;62188;35.640;139.748;2022-08-06T10:28:51;101010.63;;;29.45;41.38
64115;BME280;62188;35.640;139.748;2022-08-06T10:31:15;101014.81;;;29.73;41.75
64115;BME280;62188;35.640;139.748;2022-08-06T10:33:43;101017.48;;;29.76;42.14
64115;BME280;62188;35.640;139.748;2022-08-06T10:36:09;101016.86;;;29.48;42.07
64115;BME280;62188;35.640;139.748;2022-08-06T10:38:33;101016.60;;;29.50;41.65
64115;BME280;62188;35.640;139.748;2022-08-06T10:40:58;101015.67;;;29.46;41.13
64115;BME280;62188;35.640;139.748;2022-08-06T10:43:21;101023.50;;;29.42;41.21
64115;BME280;62188;35.640;139.748;2022-08-06T10:45:47;101029.22;;;29.61;41.04
64115;BME280;62188;35.640;139.748;2022-08-06T10:48:11;101030.73;;;29.22;41.33
64115;BME280;62188;35.640;139.748;2022-08-06T10:50:38;101031.80;;;29.20;41.53
64115;BME280;62188;35.640;139.748;2022-08-06T10:53:03;101032.25;;;29.45;41.46
64115;BME280;62188;35.640;139.748;2022-08-06T10:55:29;101038.95;;;29.18;41.14
64115;BME280;62188;35.640;139.748;2022-08-06T10:57:53;101036.47;;;29.30;41.00
64115;BME280;62188;35.640;139.748;2022-08-06T11:00:19;101038.25;;;29.15;41.70
64115;BME280;62188;35.640;139.748;2022-08-06T11:02:51;101037.58;;;29.43;40.86
64115;BME280;62188;35.640;139.748;2022-08-06T11:05:14;101038.68;;;29.72;41.34
64115;BME280;62188;35.640;139.748;2022-08-06T11:12:38;101053.06;;;29.26;41.09
64115;BME280;62188;35.640;139.748;2022-08-06T11:14:52;101059.14;;;29.48;41.25
64115;BME280;62188;35.640;139.748;2022-08-06T11:17:17;101059.01;;;29.23;40.78
64115;BME280;62188;35.640;139.748;2022-08-06T11:19:44;101057.87;;;29.26;41.22
64115;BME280;62188;35.640;139.748;2022-08-06T11:22:07;101060.88;;;29.55;41.30
64115;BME280;62188;35.640;139.748;2022-08-06T11:24:33;101065.82;;;29.56;41.24
64115;BME280;62188;35.640;139.748;2022-08-06T11:26:58;101070.90;;;29.60;41.22
64115;BME280;62188;35.640;139.748;2022-08-06T11:29:24;101070.97;;;29.33;41.35
64115;BME280;62188;35.640;139.748;2022-08-06T11:31:50;101071.61;;;29.35;41.81
64115;BME280;62188;35.640;139.748;2022-08-06T11:34:16;101069.58;;;29.84;41.87
64115;BME280;62188;35.640;139.748;2022-08-06T11:36:50;101065.47;;;29.34;41.79
64115;BME280;62188;35.640;139.748;2022-08-06T11:39:05;101064.46;;;29.58;41.91
64115;BME280;62188;35.640;139.748;2022-08-06T11:41:31;101064.97;;;29.61;42.11
64115;BME280;62188;35.640;139.748;2022-08-06T11:44:05;101073.82;;;29.57;41.40
64115;BME280;62188;35.640;139.748;2022-08-06T11:46:24;101079.71;;;29.26;41.51
64115;BME280;62188;35.640;139.748;2022-08-06T11:53:39;101083.24;;;29.38;41.65
64115;BME280;62188;35.640;139.748;2022-08-06T11:56:06;101090.07;;;29.35;41.66
64115;BME280;62188;35.640;139.748;2022-08-06T11:58:27;101094.58;;;29.15;42.62
64115;BME280;62188;35.640;139.748;2022-08-06T12:00:59;101102.17;;;29.40;42.24
64115;BME280;62188;35.640;139.748;2022-08-06T12:05:44;101104.16;;;29.38;42.97
64115;BME280;62188;35.640;139.748;2022-08-06T12:08:17;101108.51;;;29.09;43.09
64115;BME280;62188;35.640;139.748;2022-08-06T12:10:34;101110.09;;;29.36;43.82
64115;BME280;62188;35.640;139.748;2022-08-06T12:13:00;101116.32;;;29.21;43.99
64115;BME280;62188;35.640;139.748;2022-08-06T12:15:37;101117.09;;;28.92;45.01
64115;BME280;62188;35.640;139.748;2022-08-06T12:17:57;101124.67;;;28.86;45.28
64115;BME280;62188;35.640;139.748;2022-08-06T12:20:18;101130.14;;;28.96;45.44
64115;BME280;62188;35.640;139.748;2022-08-06T12:22:47;101137.51;;;28.71;45.75
64115;BME280;62188;35.640;139.748;2022-08-06T12:25:08;101138.59;;;28.55;46.65
64115;BME280;62188;35.640;139.748;2022-08-06T12:27:34;101142.04;;;28.55;46.84
64115;BME280;62188;35.640;139.748;2022-08-06T12:29:59;101144.83;;;28.45;47.11
64115;BME280;62188;35.640;139.748;2022-08-06T12:32:24;101149.98;;;28.19;46.90
64115;BME280;62188;35.640;139.748;2022-08-06T12:34:48;101157.55;;;28.20;47.36